Time;durP1;ratioP1;P1;durP2;ratioP2;P2;SDS_P1;SDS_P2;PMS_P1;PMS_P2;Temp;Humidity;BMP_temperature;BMP_pressure;BME280_temperature;BME280_humidity;BME280_pressure;Samples;Min_cycle;Max_cycle;Signal;HPM_P1;HPM_P2
2022/11/11 00:01:34;;;;;;;15.68;4.72;;;;;;;;;;4991444;28;20385;-65
2022/11/11 00:03:59;;;;;;;18.43;5.43;;;;;;;;;;4992848;28;20448;-67
2022/11/11 00:06:24;;;;;;;18.52;5.13;;;;;;;;;;4992511;28;20250;-66
2022/11/11 00:08:49;;;;;;;10.43;3.67;;;;;;;;;;4993074;28;20026;-67
2022/11/11 00:11:15;;;;;;;14.77;5.27;;;;;;;;;;4992647;28;20316;-67
2022/11/11 00:13:41;;;;;;;6.32;3.33;;;;;;;;;;4992427;28;20272;-66
2022/11/11 00:16:18;;;;;;;11.02;2.70;;;;;;;;;;4995345;28;20021;-67
2022/11/11 00:27:04;;;;;;;7.25;2.63;;;;;;;;;;4992190;28;20030;-66
2022/11/11 00:29:29;;;;;;;16.23;6.35;;;;;;;;;;4994092;28;20375;-67
2022/11/11 00:34:38;;;;;;;14.25;5.18;;;;;;;;;;4988725;28;20085;-67
2022/11/11 00:37:03;;;;;;;20.37;6.03;;;;;;;;;;4992011;28;20015;-68
2022/11/11 00:39:28;;;;;;;18.07;5.53;;;;;;;;;;4992127;28;20707;-68
2022/11/11 00:41:54;;;;;;;15.93;5.17;;;;;;;;;;4991997;28;20328;-67
2022/11/11 00:44:19;;;;;;;13.40;5.13;;;;;;;;;;4990588;28;20289;-68
2022/11/11 00:52:12;;;;;;;18.52;4.97;;;;;;;;;;4992016;28;20430;-66
2022/11/11 00:54:37;;;;;;;13.90;5.37;;;;;;;;;;4991747;28;20015;-67
2022/11/11 00:57:02;;;;;;;20.20;5.87;;;;;;;;;;4993666;28;20268;-67
2022/11/11 00:59:27;;;;;;;17.58;5.72;;;;;;;;;;4991736;28;20578;-67
2022/11/11 01:01:52;;;;;;;20.25;5.45;;;;;;;;;;4991720;28;20465;-67
2022/11/11 01:04:17;;;;;;;17.83;5.75;;;;;;;;;;4992214;28;20084;-68
2022/11/11 01:06:43;;;;;;;14.60;6.27;;;;;;;;;;4990501;28;20011;-67
2022/11/11 01:09:08;;;;;;;21.20;5.57;;;;;;;;;;4991791;28;20254;-67
2022/11/11 01:11:33;;;;;;;11.33;5.00;;;;;;;;;;4990378;28;20305;-67
2022/11/11 01:13:58;;;;;;;16.13;4.30;;;;;;;;;;4991468;28;20269;-66
2022/11/11 01:16:25;;;;;;;14.05;4.93;;;;;;;;;;4991192;28;20257;-67
2022/11/11 01:18:50;;;;;;;11.02;4.40;;;;;;;;;;4993119;28;20073;-67
2022/11/11 01:21:17;;;;;;;10.93;3.83;;;;;;;;;;4992187;28;20116;-68
2022/11/11 01:23:44;;;;;;;19.50;4.65;;;;;;;;;;4991194;28;20029;-67
2022/11/11 01:26:12;;;;;;;13.82;5.78;;;;;;;;;;4988920;28;20018;-67
2022/11/11 01:28:37;;;;;;;10.52;4.25;;;;;;;;;;4987956;28;21656;-67
2022/11/11 01:31:07;;;;;;;4.18;2.78;;;;;;;;;;4990421;28;20029;-67
2022/11/11 01:33:33;;;;;;;10.48;4.85;;;;;;;;;;4988790;28;20122;-67
2022/11/11 01:36:07;;;;;;;17.50;5.13;;;;;;;;;;4990725;28;20105;-66
2022/11/11 01:38:32;;;;;;;13.32;3.80;;;;;;;;;;4989554;28;20022;-67
2022/11/11 01:40:58;;;;;;;5.22;2.13;;;;;;;;;;4991063;28;20025;-67
2022/11/11 01:43:24;;;;;;;7.05;3.88;;;;;;;;;;4990681;28;20030;-66
2022/11/11 01:45:49;;;;;;;15.20;5.60;;;;;;;;;;4986265;28;20030;-67
2022/11/11 01:51:43;;;;;;;14.55;5.22;;;;;;;;;;4980296;28;20479;-65
2022/11/11 01:54:13;;;;;;;9.77;4.72;;;;;;;;;;4985915;28;21013;-67
2022/11/11 01:56:39;;;;;;;12.80;4.82;;;;;;;;;;4988853;28;20449;-67
2022/11/11 01:59:08;;;;;;;20.33;6.00;;;;;;;;;;4990855;28;20018;-67
2022/11/11 02:01:34;;;;;;;11.43;4.68;;;;;;;;;;4988213;28;20022;-67
2022/11/11 02:06:43;;;;;;;16.67;4.60;;;;;;;;;;4989345;28;20084;-67
2022/11/11 02:09:09;;;;;;;9.73;4.22;;;;;;;;;;4989358;28;20531;-67
2022/11/11 02:14:38;;;;;;;7.82;3.38;;;;;;;;;;4990720;28;20069;-65
2022/11/11 02:17:05;;;;;;;14.50;3.70;;;;;;;;;;4991897;28;20026;-67
2022/11/11 02:19:52;;;;;;;15.80;4.65;;;;;;;;;;4989513;28;20033;-67
2022/11/11 02:22:40;;;;;;;13.30;4.00;;;;;;;;;;4990128;28;20357;-67
2022/11/11 02:25:06;;;;;;;12.25;4.57;;;;;;;;;;4990258;28;20728;-66
2022/11/11 02:27:34;;;;;;;16.42;5.38;;;;;;;;;;4990279;28;20105;-66
2022/11/11 02:30:00;;;;;;;13.77;4.72;;;;;;;;;;4990440;28;20022;-67
2022/11/11 02:32:25;;;;;;;15.82;4.65;;;;;;;;;;4991025;28;20036;-67
2022/11/11 02:34:51;;;;;;;13.73;3.97;;;;;;;;;;4988959;28;20106;-62
2022/11/11 02:37:18;;;;;;;20.37;5.27;;;;;;;;;;4990249;28;20269;-67
2022/11/11 02:39:45;;;;;;;7.20;4.30;;;;;;;;;;4990364;28;20670;-66
2022/11/11 02:42:12;;;;;;;16.40;4.53;;;;;;;;;;4990246;28;20479;-65
2022/11/11 02:44:37;;;;;;;9.45;2.35;;;;;;;;;;4989767;28;20042;-66
2022/11/11 02:47:03;;;;;;;11.23;3.25;;;;;;;;;;4993650;28;20034;-65
2022/11/11 02:49:29;;;;;;;13.82;4.50;;;;;;;;;;4991419;28;20022;-67
2022/11/11 02:51:54;;;;;;;16.50;5.07;;;;;;;;;;4991805;28;20014;-63
2022/11/11 02:54:19;;;;;;;11.43;4.38;;;;;;;;;;4992571;28;20033;-67
2022/11/11 02:59:28;;;;;;;11.73;4.07;;;;;;;;;;4992199;28;20408;-66
2022/11/11 03:01:53;;;;;;;11.90;5.30;;;;;;;;;;4990332;28;20030;-67
2022/11/11 03:04:18;;;;;;;15.47;4.10;;;;;;;;;;4992187;28;20297;-65
2022/11/11 03:06:43;;;;;;;13.27;4.60;;;;;;;;;;4992594;28;20272;-67
2022/11/11 03:09:08;;;;;;;10.33;5.03;;;;;;;;;;4990996;28;20277;-64
2022/11/11 03:11:37;;;;;;;9.63;4.40;;;;;;;;;;4991362;28;20265;-67
2022/11/11 03:14:02;;;;;;;17.10;5.38;;;;;;;;;;4993448;28;20274;-67
2022/11/11 03:19:11;;;;;;;17.25;4.70;;;;;;;;;;4990518;28;20037;-67
2022/11/11 03:21:36;;;;;;;12.23;4.70;;;;;;;;;;4992439;28;20391;-67
2022/11/11 03:24:01;;;;;;;13.70;4.70;;;;;;;;;;4991308;28;20427;-67
2022/11/11 03:26:27;;;;;;;10.55;4.30;;;;;;;;;;4991487;28;20034;-67
2022/11/11 03:28:52;;;;;;;11.40;3.42;;;;;;;;;;4991729;28;20266;-67
2022/11/11 03:31:17;;;;;;;5.85;2.70;;;;;;;;;;4991276;28;20499;-66
2022/11/11 03:33:42;;;;;;;18.60;4.10;;;;;;;;;;4991574;28;20098;-67
2022/11/11 03:36:08;;;;;;;12.13;4.57;;;;;;;;;;4991169;28;20026;-67
2022/11/11 03:38:33;;;;;;;7.95;3.65;;;;;;;;;;4990563;28;20307;-66
2022/11/11 03:40:58;;;;;;;13.10;5.10;;;;;;;;;;4992105;28;20050;-67
2022/11/11 03:43:25;;;;;;;9.93;2.58;;;;;;;;;;4990300;28;20289;-66
2022/11/11 03:45:51;;;;;;;8.00;2.67;;;;;;;;;;4989453;28;20480;-67
2022/11/11 03:48:16;;;;;;;8.85;3.88;;;;;;;;;;4994137;28;20030;-66
2022/11/11 03:50:41;;;;;;;12.77;4.55;;;;;;;;;;4989969;28;20050;-67
2022/11/11 03:53:07;;;;;;;11.55;4.30;;;;;;;;;;4991300;28;20018;-67
2022/11/11 03:55:32;;;;;;;12.50;4.47;;;;;;;;;;4991810;28;20041;-65
2022/11/11 03:57:57;;;;;;;13.00;3.38;;;;;;;;;;4992789;28;20080;-66
2022/11/11 04:00:24;;;;;;;11.00;4.43;;;;;;;;;;4992411;28;20026;-67
2022/11/11 04:11:06;;;;;;;9.85;3.20;;;;;;;;;;4989708;28;20033;-66
2022/11/11 04:16:16;;;;;;;17.90;4.57;;;;;;;;;;4992859;28;20049;-67
2022/11/11 04:21:43;;;;;;;10.30;4.07;;;;;;;;;;4990210;28;20041;-64
2022/11/11 04:26:58;;;;;;;11.30;4.40;;;;;;;;;;4991889;28;20106;-67
2022/11/11 04:29:29;;;;;;;12.25;4.10;;;;;;;;;;4992562;28;20010;-66
2022/11/11 04:34:43;;;;;;;12.23;3.92;;;;;;;;;;4991903;28;20032;-67
2022/11/11 04:37:09;;;;;;;11.63;4.60;;;;;;;;;;4992068;28;20018;-67
2022/11/11 04:42:18;;;;;;;13.70;4.93;;;;;;;;;;4992154;28;20037;-67
2022/11/11 04:47:27;;;;;;;17.45;4.35;;;;;;;;;;4993795;28;20040;-67
2022/11/11 04:49:52;;;;;;;10.65;4.57;;;;;;;;;;4991545;28;20097;-67
2022/11/11 04:52:26;;;;;;;11.32;4.93;;;;;;;;;;4991909;28;20382;-67
2022/11/11 04:57:43;;;;;;;8.55;2.58;;;;;;;;;;4991091;28;20110;-67
2022/11/11 05:00:09;;;;;;;5.53;2.58;;;;;;;;;;4991682;28;20037;-67
2022/11/11 05:05:18;;;;;;;7.03;2.17;;;;;;;;;;4991326;28;20024;-64
2022/11/11 05:10:27;;;;;;;10.57;4.95;;;;;;;;;;4991850;28;20253;-67
2022/11/11 05:12:52;;;;;;;16.33;4.70;;;;;;;;;;4991530;28;20030;-65
2022/11/11 05:26:23;;;;;;;6.30;3.08;;;;;;;;;;4979233;28;20030;-67
2022/11/11 05:28:48;;;;;;;9.47;3.73;;;;;;;;;;4991846;28;20010;-67
2022/11/11 05:31:14;;;;;;;20.93;4.93;;;;;;;;;;4993872;28;20295;-66
2022/11/11 05:33:39;;;;;;;9.07;4.07;;;;;;;;;;4990958;28;21294;-67
2022/11/11 05:36:04;;;;;;;12.70;5.47;;;;;;;;;;4990889;28;20250;-67
2022/11/11 05:38:29;;;;;;;11.32;5.38;;;;;;;;;;4990995;28;20681;-67
2022/11/11 05:40:54;;;;;;;14.68;4.70;;;;;;;;;;4990977;28;20026;-67
2022/11/11 05:43:20;;;;;;;11.50;4.60;;;;;;;;;;4990294;28;20026;-67
2022/11/11 05:45:45;;;;;;;12.35;4.28;;;;;;;;;;4988380;28;20049;-68
2022/11/11 05:48:10;;;;;;;13.23;4.60;;;;;;;;;;4987652;28;20006;-66
2022/11/11 05:50:40;;;;;;;9.83;4.70;;;;;;;;;;4989692;28;20607;-67
2022/11/11 05:53:05;;;;;;;9.98;4.28;;;;;;;;;;4990805;28;20344;-67
2022/11/11 05:55:30;;;;;;;12.13;4.77;;;;;;;;;;4988986;28;20153;-68
2022/11/11 05:57:55;;;;;;;12.40;3.50;;;;;;;;;;4989177;28;20626;-67
2022/11/11 06:00:20;;;;;;;5.50;2.87;;;;;;;;;;4990068;28;20316;-67
2022/11/11 06:02:45;;;;;;;10.23;2.17;;;;;;;;;;4990271;28;20289;-67
2022/11/11 06:05:11;;;;;;;11.40;3.30;;;;;;;;;;4990167;28;20269;-67
2022/11/11 06:07:37;;;;;;;7.60;2.70;;;;;;;;;;4990275;28;20253;-67
2022/11/11 06:13:01;;;;;;;8.57;3.75;;;;;;;;;;4990191;28;20073;-66
2022/11/11 06:15:26;;;;;;;;;;;;;;;;;;4990017;28;20018;-66
2022/11/11 06:17:51;;;;;;;12.20;4.53;;;;;;;;;;4990475;28;19929;-66
2022/11/11 06:20:16;;;;;;;10.20;3.67;;;;;;;;;;4989619;28;20026;-67
2022/11/11 06:22:57;;;;;;;15.63;5.10;;;;;;;;;;4993373;28;20337;-66
2022/11/11 06:28:06;;;;;;;15.77;4.30;;;;;;;;;;4991427;28;19940;-67
2022/11/11 06:30:31;;;;;;;13.43;5.05;;;;;;;;;;4996325;28;20519;-66
2022/11/11 06:32:56;;;;;;;8.13;2.33;;;;;;;;;;4992856;28;20085;-67
2022/11/11 06:35:21;;;;;;;12.77;4.33;;;;;;;;;;4991501;28;20443;-68
2022/11/11 06:37:47;;;;;;;15.63;4.78;;;;;;;;;;4991678;28;20277;-70
2022/11/11 06:40:12;;;;;;;11.35;3.63;;;;;;;;;;4998261;28;20037;-68
2022/11/11 06:42:37;;;;;;;12.48;4.45;;;;;;;;;;4990477;28;20022;-67
2022/11/11 06:45:02;;;;;;;8.27;4.38;;;;;;;;;;4991567;28;20050;-69
2022/11/11 06:47:28;;;;;;;13.15;4.97;;;;;;;;;;4991744;28;20065;-68
2022/11/11 06:49:53;;;;;;;6.93;3.07;;;;;;;;;;4994052;28;20014;-68
2022/11/11 06:52:18;;;;;;;13.33;4.23;;;;;;;;;;4992733;28;20622;-68
2022/11/11 06:54:43;;;;;;;17.73;3.97;;;;;;;;;;4993856;28;20275;-68
2022/11/11 06:57:08;;;;;;;4.07;2.30;;;;;;;;;;4993735;28;20778;-68
2022/11/11 06:59:33;;;;;;;3.93;2.23;;;;;;;;;;4995362;28;20298;-68
2022/11/11 07:01:58;;;;;;;7.85;3.20;;;;;;;;;;4993050;28;20773;-67
2022/11/11 07:04:24;;;;;;;5.63;2.37;;;;;;;;;;4993476;28;20034;-68
2022/11/11 07:06:49;;;;;;;14.00;3.30;;;;;;;;;;4995687;28;20279;-67
2022/11/11 07:09:14;;;;;;;9.53;3.63;;;;;;;;;;4993798;28;20273;-67
2022/11/11 07:11:39;;;;;;;11.50;4.07;;;;;;;;;;4992324;28;20319;-66
2022/11/11 07:14:04;;;;;;;10.18;4.18;;;;;;;;;;4989239;28;20268;-67
2022/11/11 07:16:30;;;;;;;6.63;3.57;;;;;;;;;;4991885;28;20022;-67
2022/11/11 07:18:55;;;;;;;8.37;2.87;;;;;;;;;;4993458;28;20262;-68
2022/11/11 07:21:20;;;;;;;13.10;4.73;;;;;;;;;;4993269;28;20817;-67
2022/11/11 07:23:45;;;;;;;6.47;4.10;;;;;;;;;;4992991;28;20289;-68
2022/11/11 07:26:10;;;;;;;10.63;3.97;;;;;;;;;;4991041;28;20368;-68
2022/11/11 07:28:35;;;;;;;6.77;3.13;;;;;;;;;;4993004;28;20324;-68
2022/11/11 07:31:00;;;;;;;13.53;4.13;;;;;;;;;;4992527;28;20762;-67
2022/11/11 07:33:26;;;;;;;16.10;4.47;;;;;;;;;;4995808;28;20296;-68
2022/11/11 07:35:51;;;;;;;7.20;3.00;;;;;;;;;;4993578;28;20270;-68
2022/11/11 07:38:16;;;;;;;11.03;3.30;;;;;;;;;;4992842;28;20262;-68
2022/11/11 07:40:41;;;;;;;8.57;3.20;;;;;;;;;;4995026;28;20352;-68
2022/11/11 07:43:06;;;;;;;10.82;3.22;;;;;;;;;;4992213;28;20282;-68
2022/11/11 07:45:32;;;;;;;12.30;3.88;;;;;;;;;;4988461;28;20026;-67
2022/11/11 07:47:57;;;;;;;9.38;3.35;;;;;;;;;;4992939;28;20018;-67
2022/11/11 07:50:23;;;;;;;10.97;3.40;;;;;;;;;;4993052;28;20042;-67
2022/11/11 07:52:48;;;;;;;9.03;3.70;;;;;;;;;;4992820;28;20265;-68
2022/11/11 07:55:13;;;;;;;9.48;3.30;;;;;;;;;;4992033;28;20836;-68
2022/11/11 07:57:39;;;;;;;12.45;3.20;;;;;;;;;;4991832;28;20018;-68
2022/11/11 08:00:04;;;;;;;14.90;4.00;;;;;;;;;;4991983;28;20045;-68
2022/11/11 08:02:29;;;;;;;13.80;4.57;;;;;;;;;;4991768;28;20282;-69
2022/11/11 08:04:54;;;;;;;8.23;3.13;;;;;;;;;;4991685;28;20018;-69
2022/11/11 08:07:20;;;;;;;11.53;3.30;;;;;;;;;;4990744;28;20093;-66
2022/11/11 08:09:45;;;;;;;10.48;3.65;;;;;;;;;;4987738;28;20289;-68
2022/11/11 08:14:54;;;;;;;6.95;3.67;;;;;;;;;;4988969;28;20085;-68
2022/11/11 08:17:19;;;;;;;4.77;1.93;;;;;;;;;;4991403;28;20034;-67
2022/11/11 08:19:44;;;;;;;11.23;4.83;;;;;;;;;;4988685;28;20313;-68
2022/11/11 08:22:09;;;;;;;11.43;2.73;;;;;;;;;;4992177;28;20268;-66
2022/11/11 08:24:34;;;;;;;8.90;4.07;;;;;;;;;;4991732;28;20290;-67
2022/11/11 08:27:00;;;;;;;8.83;3.30;;;;;;;;;;4989970;28;20096;-66
2022/11/11 08:29:25;;;;;;;5.93;3.13;;;;;;;;;;4992943;28;20328;-67
2022/11/11 08:31:51;;;;;;;11.07;4.20;;;;;;;;;;4990243;28;20026;-66
2022/11/11 08:34:16;;;;;;;10.43;4.55;;;;;;;;;;4990424;28;20282;-67
2022/11/11 08:36:41;;;;;;;8.37;3.73;;;;;;;;;;4984657;28;20026;-68
2022/11/11 08:39:06;;;;;;;8.80;3.30;;;;;;;;;;4993309;28;20632;-67
2022/11/11 08:41:31;;;;;;;7.20;3.05;;;;;;;;;;4991494;28;20273;-68
2022/11/11 08:43:58;;;;;;;9.63;4.18;;;;;;;;;;4988791;28;20026;-67
2022/11/11 08:46:24;;;;;;;17.50;4.05;;;;;;;;;;4990247;28;20437;-67
2022/11/11 08:48:49;;;;;;;11.38;4.75;;;;;;;;;;4992325;28;20057;-67
2022/11/11 08:51:15;;;;;;;9.40;3.75;;;;;;;;;;4989268;28;20037;-68
2022/11/11 08:53:40;;;;;;;12.27;3.70;;;;;;;;;;4991642;28;20014;-67
2022/11/11 08:56:06;;;;;;;14.65;3.97;;;;;;;;;;4988656;28;20029;-67
2022/11/11 08:58:31;;;;;;;7.53;2.25;;;;;;;;;;4990753;28;20037;-67
2022/11/11 09:00:56;;;;;;;7.50;2.43;;;;;;;;;;4989324;28;20023;-67
2022/11/11 09:03:21;;;;;;;5.07;2.50;;;;;;;;;;4991356;28;20392;-68
2022/11/11 09:05:47;;;;;;;10.05;2.55;;;;;;;;;;4990126;28;20030;-68
2022/11/11 09:08:12;;;;;;;8.82;3.17;;;;;;;;;;4991283;28;20157;-67
2022/11/11 09:10:37;;;;;;;10.43;3.67;;;;;;;;;;4990471;28;20093;-68
2022/11/11 09:13:03;;;;;;;12.40;3.03;;;;;;;;;;4990271;28;20618;-67
2022/11/11 09:15:28;;;;;;;10.80;4.65;;;;;;;;;;4990270;28;20034;-67
2022/11/11 09:17:53;;;;;;;10.73;2.75;;;;;;;;;;4989562;28;20018;-67
2022/11/11 09:20:19;;;;;;;6.97;3.43;;;;;;;;;;4990383;28;20115;-67
2022/11/11 09:22:45;;;;;;;5.43;2.92;;;;;;;;;;4989231;28;20774;-68
2022/11/11 09:25:10;;;;;;;8.98;4.30;;;;;;;;;;4990327;28;20018;-68
2022/11/11 09:27:35;;;;;;;6.32;2.20;;;;;;;;;;4990356;28;20026;-68
2022/11/11 09:30:01;;;;;;;8.80;2.78;;;;;;;;;;4988354;28;20041;-69
2022/11/11 09:32:26;;;;;;;8.93;3.37;;;;;;;;;;4988043;28;20018;-67
2022/11/11 09:34:51;;;;;;;5.35;3.00;;;;;;;;;;4990917;28;20253;-68
2022/11/11 09:37:16;;;;;;;7.47;2.17;;;;;;;;;;4988587;28;20475;-67
2022/11/11 09:39:41;;;;;;;3.53;2.00;;;;;;;;;;4988237;28;20391;-68
2022/11/11 09:42:15;;;;;;;7.07;2.13;;;;;;;;;;4989902;28;20289;-67
2022/11/11 09:44:48;;;;;;;7.47;3.35;;;;;;;;;;4988404;28;20281;-68
2022/11/11 09:47:18;;;;;;;7.40;3.33;;;;;;;;;;4990976;28;20098;-67
2022/11/11 09:49:50;;;;;;;7.63;2.45;;;;;;;;;;4989252;28;20068;-68
2022/11/11 09:52:28;;;;;;;11.63;4.03;;;;;;;;;;4989578;28;20110;-67
2022/11/11 09:55:29;;;;;;;13.93;2.88;;;;;;;;;;4988243;28;20022;-70
2022/11/11 09:58:00;;;;;;;8.05;3.53;;;;;;;;;;4928322;29;20020;-67
2022/11/11 10:00:28;;;;;;;13.32;3.38;;;;;;;;;;4980195;28;20122;-68
2022/11/11 10:02:56;;;;;;;3.45;1.92;;;;;;;;;;4989663;28;20472;-68
2022/11/11 10:05:24;;;;;;;5.80;2.72;;;;;;;;;;4989282;28;20026;-68
2022/11/11 10:07:53;;;;;;;6.30;3.10;;;;;;;;;;4989518;28;20110;-67
2022/11/11 10:10:38;;;;;;;8.00;2.67;;;;;;;;;;4989594;28;20109;-67
2022/11/11 10:13:11;;;;;;;10.10;3.50;;;;;;;;;;4986364;28;20112;-68
2022/11/11 10:15:40;;;;;;;11.20;2.90;;;;;;;;;;4987887;28;20045;-68
2022/11/11 10:18:05;;;;;;;2.38;1.40;;;;;;;;;;4988686;28;20428;-68
2022/11/11 10:20:32;;;;;;;6.17;2.53;;;;;;;;;;4988649;28;20085;-67
2022/11/11 10:23:03;;;;;;;8.15;2.60;;;;;;;;;;4988736;28;20293;-68
2022/11/11 10:25:29;;;;;;;8.05;3.30;;;;;;;;;;4985722;28;20132;-68
2022/11/11 10:27:55;;;;;;;5.00;1.85;;;;;;;;;;4988150;28;20471;-67
2022/11/11 10:30:23;;;;;;;3.92;1.63;;;;;;;;;;4990119;28;20109;-68
2022/11/11 10:32:53;;;;;;;9.95;2.50;;;;;;;;;;4988598;28;20022;-68
2022/11/11 10:35:22;;;;;;;7.45;2.90;;;;;;;;;;4989258;28;20033;-68
2022/11/11 10:37:50;;;;;;;8.52;3.58;;;;;;;;;;4990585;28;20103;-69
2022/11/11 10:40:24;;;;;;;2.50;1.55;;;;;;;;;;4990307;28;20030;-68
2022/11/11 10:42:50;;;;;;;9.15;2.65;;;;;;;;;;4988408;28;20022;-68
2022/11/11 10:45:21;;;;;;;6.13;2.53;;;;;;;;;;4988421;28;20065;-68
2022/11/11 10:47:51;;;;;;;5.32;2.28;;;;;;;;;;4989526;28;20030;-68
2022/11/11 10:50:22;;;;;;;8.02;2.60;;;;;;;;;;4988479;28;20034;-68
2022/11/11 10:52:53;;;;;;;6.97;3.03;;;;;;;;;;4989749;28;20027;-67
2022/11/11 10:55:25;;;;;;;9.27;2.17;;;;;;;;;;4990220;28;20237;-68
2022/11/11 10:57:54;;;;;;;8.85;2.95;;;;;;;;;;4990314;28;20022;-68
2022/11/11 11:00:19;;;;;;;2.22;1.13;;;;;;;;;;4986198;28;20495;-67
2022/11/11 11:03:03;;;;;;;8.60;2.40;;;;;;;;;;4988654;28;20057;-69
2022/11/11 11:05:43;;;;;;;13.85;3.08;;;;;;;;;;4983698;28;20030;-68
2022/11/11 11:08:11;;;;;;;10.02;3.70;;;;;;;;;;4989191;28;20112;-68
2022/11/11 11:10:40;;;;;;;4.95;2.80;;;;;;;;;;4994898;28;20030;-68
2022/11/11 11:13:16;;;;;;;5.72;2.13;;;;;;;;;;4991240;28;20023;-69
2022/11/11 11:15:48;;;;;;;3.78;2.20;;;;;;;;;;4991666;28;20030;-67
2022/11/11 11:18:14;;;;;;;5.90;2.10;;;;;;;;;;4992320;28;20535;-67
2022/11/11 11:20:59;;;;;;;6.70;2.13;;;;;;;;;;4993114;28;20034;-67
2022/11/11 11:23:41;;;;;;;4.28;1.60;;;;;;;;;;4990983;28;20064;-68
2022/11/11 11:26:07;;;;;;;6.32;2.10;;;;;;;;;;4988282;28;20026;-68
2022/11/11 11:28:33;;;;;;;8.98;2.85;;;;;;;;;;4992446;28;20054;-69
2022/11/11 11:31:05;;;;;;;4.05;1.52;;;;;;;;;;4992351;28;20030;-68
2022/11/11 11:33:48;;;;;;;5.22;1.80;;;;;;;;;;4992256;28;20372;-69
2022/11/11 11:36:15;;;;;;;6.38;2.40;;;;;;;;;;4989949;28;20034;-68
2022/11/11 11:38:41;;;;;;;8.48;1.95;;;;;;;;;;4990174;28;20044;-69
2022/11/11 11:41:06;;;;;;;3.42;1.80;;;;;;;;;;4988680;28;20395;-68
2022/11/11 11:43:35;;;;;;;5.05;2.08;;;;;;;;;;4992327;28;20034;-68
2022/11/11 11:46:03;;;;;;;3.27;1.50;;;;;;;;;;4991503;28;20080;-68
2022/11/11 11:48:41;;;;;;;2.85;1.17;;;;;;;;;;4988266;28;20022;-69
2022/11/11 11:51:25;;;;;;;10.73;2.03;;;;;;;;;;4991103;28;20018;-67
2022/11/11 11:53:59;;;;;;;2.90;1.35;;;;;;;;;;4991127;28;20134;-68
2022/11/11 11:56:32;;;;;;;4.93;1.40;;;;;;;;;;4991661;28;20022;-68
2022/11/11 11:59:19;;;;;;;12.00;2.20;;;;;;;;;;4992220;28;20069;-67
2022/11/11 12:02:06;;;;;;;7.57;1.65;;;;;;;;;;4991823;28;20483;-67
2022/11/11 12:04:40;;;;;;;3.72;1.67;;;;;;;;;;4992834;28;20546;-68
2022/11/11 12:07:11;;;;;;;6.60;1.90;;;;;;;;;;4992310;28;20049;-69
2022/11/11 12:10:03;;;;;;;3.55;1.92;;;;;;;;;;4992889;28;20019;-69
2022/11/11 12:12:50;;;;;;;4.07;1.23;;;;;;;;;;4989211;28;20041;-68
2022/11/11 12:15:23;;;;;;;4.55;2.05;;;;;;;;;;4990807;28;20031;-68
2022/11/11 12:18:05;;;;;;;6.78;2.17;;;;;;;;;;4991865;28;20024;-68
2022/11/11 12:20:49;;;;;;;6.10;1.40;;;;;;;;;;4992946;28;20018;-68
2022/11/11 12:23:17;;;;;;;4.55;1.42;;;;;;;;;;4992629;28;20030;-68
2022/11/11 12:25:54;;;;;;;3.97;1.10;;;;;;;;;;4993115;28;20029;-68
2022/11/11 12:28:38;;;;;;;2.85;1.30;;;;;;;;;;4991546;28;20027;-67
2022/11/11 12:31:16;;;;;;;4.68;1.45;;;;;;;;;;4992595;28;20058;-68
2022/11/11 12:33:56;;;;;;;8.20;1.27;;;;;;;;;;4992534;28;20052;-67
2022/11/11 12:36:39;;;;;;;3.65;1.27;;;;;;;;;;4991004;28;20030;-67
2022/11/11 12:39:10;;;;;;;2.85;1.00;;;;;;;;;;4992478;28;20042;-68
2022/11/11 12:41:53;;;;;;;8.02;1.77;;;;;;;;;;4992216;28;20029;-68
2022/11/11 12:44:21;;;;;;;4.32;2.03;;;;;;;;;;4990932;28;20030;-68
2022/11/11 12:47:02;;;;;;;4.13;1.73;;;;;;;;;;4992002;28;20022;-67
2022/11/11 12:49:33;;;;;;;1.90;1.02;;;;;;;;;;4991904;28;20018;-68
2022/11/11 12:52:17;;;;;;;3.40;1.02;;;;;;;;;;4991477;28;20049;-68
2022/11/11 12:54:45;;;;;;;2.60;1.42;;;;;;;;;;4989253;28;20022;-68
2022/11/11 12:57:13;;;;;;;16.23;1.08;;;;;;;;;;4991381;28;20069;-69
2022/11/11 12:59:56;;;;;;;3.78;1.35;;;;;;;;;;4991978;28;20069;-68
2022/11/11 13:02:30;;;;;;;4.57;1.23;;;;;;;;;;4991819;28;20030;-68
2022/11/11 13:05:08;;;;;;;3.38;1.02;;;;;;;;;;4990240;28;20026;-68
2022/11/11 13:07:56;;;;;;;0.93;0.22;;;;;;;;;;4989419;28;20022;-67
2022/11/11 13:10:30;;;;;;;1.90;0.93;;;;;;;;;;4991006;28;20058;-68
2022/11/11 13:13:05;;;;;;;7.10;1.35;;;;;;;;;;4989320;28;20050;-68
2022/11/11 13:15:30;;;;;;;3.88;1.38;;;;;;;;;;4991405;28;20025;-68
2022/11/11 13:17:58;;;;;;;6.90;1.20;;;;;;;;;;4991722;28;20117;-69
2022/11/11 13:20:32;;;;;;;2.78;0.90;;;;;;;;;;4992199;28;20030;-67
2022/11/11 13:22:57;;;;;;;2.83;1.05;;;;;;;;;;4989252;28;20120;-68
2022/11/11 13:25:27;;;;;;;3.17;1.23;;;;;;;;;;4989447;28;20053;-67
2022/11/11 13:27:59;;;;;;;2.17;0.88;;;;;;;;;;4988253;28;20025;-68
2022/11/11 13:30:42;;;;;;;0.85;0.43;;;;;;;;;;4991018;28;20099;-68
2022/11/11 13:33:10;;;;;;;0.80;0.32;;;;;;;;;;4991139;28;20115;-68
2022/11/11 13:35:47;;;;;;;4.65;1.00;;;;;;;;;;4990348;28;20035;-68
2022/11/11 13:38:23;;;;;;;1.55;0.80;;;;;;;;;;4990771;28;20045;-68
2022/11/11 13:40:49;;;;;;;1.95;0.88;;;;;;;;;;4990289;28;20714;-68
2022/11/11 13:43:19;;;;;;;1.67;1.52;;;;;;;;;;4989373;28;20480;-68
2022/11/11 13:45:52;;;;;;;3.38;1.08;;;;;;;;;;4991007;28;20029;-68
2022/11/11 13:48:19;;;;;;;1.17;0.60;;;;;;;;;;4991089;28;20056;-68
2022/11/11 13:50:45;;;;;;;4.60;1.08;;;;;;;;;;4991028;28;20046;-68
2022/11/11 13:53:28;;;;;;;8.50;0.87;;;;;;;;;;4990233;28;20483;-68
2022/11/11 13:55:59;;;;;;;2.67;0.90;;;;;;;;;;4990029;28;20308;-68
2022/11/11 13:58:28;;;;;;;2.17;1.00;;;;;;;;;;4990818;28;20022;-68
2022/11/11 14:00:57;;;;;;;2.42;1.33;;;;;;;;;;4990709;28;20450;-68
2022/11/11 14:03:23;;;;;;;1.02;0.65;;;;;;;;;;4990844;28;20026;-68
2022/11/11 14:06:08;;;;;;;4.32;1.17;;;;;;;;;;4990655;28;20033;-67
2022/11/11 14:08:45;;;;;;;5.80;0.95;;;;;;;;;;4989263;28;20026;-69
2022/11/11 14:11:23;;;;;;;6.75;1.50;;;;;;;;;;4991224;28;20160;-67
2022/11/11 14:13:48;;;;;;;5.50;0.80;;;;;;;;;;4989636;28;20388;-67
2022/11/11 14:16:36;;;;;;;1.73;0.77;;;;;;;;;;4990658;28;20034;-67
2022/11/11 14:19:19;;;;;;;0.93;0.45;;;;;;;;;;4988589;28;20515;-67
2022/11/11 14:21:47;;;;;;;11.43;1.58;;;;;;;;;;4990913;28;20027;-67
2022/11/11 14:24:32;;;;;;;0.85;0.45;;;;;;;;;;4990592;28;20038;-67
2022/11/11 14:26:58;;;;;;;2.95;0.70;;;;;;;;;;4989855;28;20034;-67
2022/11/11 14:29:27;;;;;;;2.25;0.82;;;;;;;;;;4990734;28;20019;-67
2022/11/11 14:32:00;;;;;;;8.18;1.30;;;;;;;;;;4990479;28;20479;-67
2022/11/11 14:34:28;;;;;;;2.88;1.25;;;;;;;;;;4990734;28;20058;-67
2022/11/11 14:36:53;;;;;;;4.22;0.90;;;;;;;;;;4990480;28;20042;-67
2022/11/11 14:39:22;;;;;;;3.70;1.30;;;;;;;;;;4989638;28;20034;-67
2022/11/11 14:41:48;;;;;;;1.60;0.40;;;;;;;;;;4991184;28;20671;-67
2022/11/11 14:44:28;;;;;;;2.10;0.77;;;;;;;;;;4994126;28;20057;-67
2022/11/11 14:46:53;;;;;;;;;;;;;;;;;;4994594;28;20102;-67
2022/11/11 14:49:37;;;;;;;3.38;1.30;;;;;;;;;;4994110;28;19964;-68
2022/11/11 14:52:21;;;;;;;3.38;1.55;;;;;;;;;;4993965;28;20026;-70
2022/11/11 14:54:51;;;;;;;3.42;0.90;;;;;;;;;;4992564;28;20438;-68
2022/11/11 14:57:19;;;;;;;3.97;0.85;;;;;;;;;;4993623;28;20058;-66
2022/11/11 14:59:45;;;;;;;4.15;1.27;;;;;;;;;;4994215;28;20110;-70
2022/11/11 15:02:17;;;;;;;3.70;1.20;;;;;;;;;;4993984;28;20106;-69
2022/11/11 15:04:42;;;;;;;3.85;1.25;;;;;;;;;;4994067;28;20024;-66
2022/11/11 15:07:16;;;;;;;6.05;1.25;;;;;;;;;;4993926;28;20076;-66
2022/11/11 15:09:41;;;;;;;1.63;0.65;;;;;;;;;;4992186;28;20022;-66
2022/11/11 15:12:25;;;;;;;2.20;1.05;;;;;;;;;;4993771;28;20082;-66
2022/11/11 15:15:13;;;;;;;5.10;1.45;;;;;;;;;;4993720;28;20026;-66
2022/11/11 15:17:51;;;;;;;5.95;2.00;;;;;;;;;;4994093;28;20030;-66
2022/11/11 15:20:35;;;;;;;2.40;1.27;;;;;;;;;;4993522;28;20479;-66
2022/11/11 15:23:00;;;;;;;8.05;0.88;;;;;;;;;;4995200;28;20022;-67
2022/11/11 15:25:33;;;;;;;2.37;1.00;;;;;;;;;;4993239;28;20426;-66
2022/11/11 15:28:03;;;;;;;2.20;1.27;;;;;;;;;;4989999;28;20521;-66
2022/11/11 15:30:50;;;;;;;12.70;2.95;;;;;;;;;;4993757;28;20077;-67
2022/11/11 15:33:19;;;;;;;3.83;1.63;;;;;;;;;;4997031;28;20108;-66
2022/11/11 15:36:03;;;;;;;4.20;1.42;;;;;;;;;;4992455;28;20014;-68
2022/11/11 15:38:29;;;;;;;3.65;1.17;;;;;;;;;;4994769;28;20026;-68
2022/11/11 15:40:57;;;;;;;7.65;1.33;;;;;;;;;;4993408;28;20014;-66
2022/11/11 15:43:24;;;;;;;6.68;2.40;;;;;;;;;;4992185;28;20030;-66
2022/11/11 15:45:50;;;;;;;6.80;1.33;;;;;;;;;;4992719;28;20045;-69
2022/11/11 15:48:17;;;;;;;5.82;1.50;;;;;;;;;;4993315;28;20532;-67
2022/11/11 15:50:42;;;;;;;8.23;1.42;;;;;;;;;;4993254;28;20480;-69
2022/11/11 15:53:10;;;;;;;4.63;1.30;;;;;;;;;;4994330;28;20038;-68
2022/11/11 15:55:36;;;;;;;8.82;3.17;;;;;;;;;;4995162;28;20032;-66
2022/11/11 15:58:09;;;;;;;4.72;1.40;;;;;;;;;;4992932;28;20097;-67
2022/11/11 16:00:34;;;;;;;7.25;3.28;;;;;;;;;;4993114;28;20030;-69
2022/11/11 16:03:00;;;;;;;16.15;6.15;;;;;;;;;;4992869;28;20026;-67
2022/11/11 16:05:26;;;;;;;4.85;2.38;;;;;;;;;;4992593;28;20046;-69
2022/11/11 16:07:53;;;;;;;11.85;2.80;;;;;;;;;;4995177;28;20056;-67
2022/11/11 16:10:24;;;;;;;8.27;2.42;;;;;;;;;;4992600;28;20026;-66
2022/11/11 16:12:54;;;;;;;8.27;2.90;;;;;;;;;;4992768;28;20046;-66